Time;durP1;ratioP1;P1;durP2;ratioP2;P2;SDS_P1;SDS_P2;PMS_P1;PMS_P2;Temp;Humidity;BMP_temperature;BMP_pressure;BME280_temperature;BME280_humidity;BME280_pressure;Samples;Min_cycle;Max_cycle;Signal;HPM_P1;HPM_P2
2021/04/12 00:01:07;;;;;;;5.33;4.50;;;9.40;84.70;;;;;;5072747;28;20770;-50
2021/04/12 00:03:35;;;;;;;4.60;4.20;;;9.40;84.90;;;;;;5072733;28;20617;-50
2021/04/12 00:06:05;;;;;;;4.10;3.80;;;9.40;85.20;;;;;;5072693;28;20660;-50
2021/04/12 00:08:36;;;;;;;5.60;5.13;;;9.40;84.90;;;;;;5072681;28;20674;-51
2021/04/12 00:11:06;;;;;;;4.03;3.73;;;9.40;84.90;;;;;;5072660;28;20621;-51
2021/04/12 00:13:37;;;;;;;4.43;4.03;;;9.30;84.80;;;;;;5072861;28;20713;-51
2021/04/12 00:16:08;;;;;;;4.60;4.20;;;9.30;84.90;;;;;;5072479;28;20660;-50
2021/04/12 00:18:38;;;;;;;4.93;4.53;;;9.30;85.00;;;;;;5072441;28;20655;-50
2021/04/12 00:21:07;;;;;;;4.73;4.33;;;9.30;84.90;;;;;;5072084;28;20684;-52
2021/04/12 00:23:36;;;;;;;5.90;5.40;;;9.30;84.70;;;;;;5072463;28;20690;-51
2021/04/12 00:26:07;;;;;;;5.57;4.63;;;9.20;84.80;;;;;;5072264;28;20664;-51
2021/04/12 00:28:36;;;;;;;5.57;4.60;;;9.20;84.90;;;;;;5072273;28;20648;-51
2021/04/12 00:31:07;;;;;;;5.80;5.20;;;9.10;85.00;;;;;;5072350;28;20652;-52
2021/04/12 00:33:37;;;;;;;6.03;5.30;;;9.10;85.50;;;;;;5072022;28;20661;-51
2021/04/12 00:36:05;;;;;;;5.90;4.97;;;9.00;86.10;;;;;;5072277;28;20648;-50
2021/04/12 00:38:34;;;;;;;6.43;5.83;;;9.10;86.50;;;;;;5072009;28;20632;-51
2021/04/12 00:41:06;;;;;;;5.73;5.17;;;9.10;86.60;;;;;;5070417;28;21035;-51
2021/04/12 00:43:35;;;;;;;5.60;5.10;;;9.10;86.20;;;;;;5072145;28;20690;-50
2021/04/12 00:46:18;;;;;;;5.77;5.27;;;9.20;86.20;;;;;;5071944;28;20667;-50
2021/04/12 00:49:00;;;;;;;5.57;5.10;;;9.20;86.30;;;;;;5071717;28;20677;-50
2021/04/12 00:51:35;;;;;;;5.40;4.70;;;9.20;86.10;;;;;;5071896;28;20661;-51
2021/04/12 00:54:26;;;;;;;4.87;4.47;;;9.20;86.20;;;;;;5072900;28;20682;-51
2021/04/12 00:56:55;;;;;;;6.27;5.60;;;9.10;85.20;;;;;;5071863;28;20636;-51
2021/04/12 00:59:26;;;;;;;4.77;4.37;;;9.10;85.80;;;;;;5071109;28;20663;-51
2021/04/12 01:01:56;;;;;;;5.90;5.40;;;9.10;86.30;;;;;;5071619;28;20657;-51
2021/04/12 01:04:37;;;;;;;6.50;5.90;;;9.10;86.50;;;;;;5071622;28;20664;-50
2021/04/12 01:07:25;;;;;;;6.23;5.27;;;9.10;85.80;;;;;;5071339;28;21008;-51
2021/04/12 01:10:32;;;;;;;7.03;6.53;;;9.10;85.50;;;;;;5070412;28;20717;-51
2021/04/12 01:13:34;;;;;;;6.03;5.43;;;9.20;85.10;;;;;;5035351;28;20667;-50
2021/04/12 01:16:21;;;;;;;8.97;6.60;;;9.10;84.40;;;;;;5071355;28;21122;-51
2021/04/12 01:19:42;;;;;;;6.40;5.87;;;9.10;85.10;;;;;;5061985;28;20672;-51
2021/04/12 01:22:45;;;;;;;5.70;5.30;;;9.10;84.70;;;;;;5067701;28;20670;-52
2021/04/12 01:25:41;;;;;;;8.13;5.73;;;9.10;84.70;;;;;;5071223;28;20652;-52
2021/04/12 01:28:40;;;;;;;8.20;6.00;;;9.00;84.70;;;;;;5070718;28;20625;-51
2021/04/12 01:31:47;;;;;;;6.53;5.90;;;9.10;84.90;;;;;;5049981;28;20628;-51
2021/04/12 01:34:46;;;;;;;5.70;5.20;;;9.10;85.10;;;;;;5071362;28;20656;-50
2021/04/12 01:37:25;;;;;;;6.90;6.30;;;9.10;84.90;;;;;;5070710;28;20629;-50
2021/04/12 01:40:10;;;;;;;6.90;6.13;;;9.00;85.00;;;;;;5071302;28;21225;-50
2021/04/12 01:42:41;;;;;;;7.60;6.90;;;9.00;85.40;;;;;;5071299;28;21033;-50
2021/04/12 01:45:21;;;;;;;7.17;6.50;;;9.00;85.20;;;;;;5070838;28;20733;-50
2021/04/12 01:47:54;;;;;;;6.53;5.70;;;8.90;85.50;;;;;;5070769;28;20665;-51
2021/04/12 01:50:27;;;;;;;6.10;5.60;;;8.90;85.80;;;;;;5071315;28;20632;-50
2021/04/12 01:53:28;;;;;;;6.93;6.27;;;8.90;86.70;;;;;;5070691;28;20666;-51
2021/04/12 01:56:12;;;;;;;6.93;6.30;;;9.00;86.90;;;;;;5067943;28;21302;-50
2021/04/12 01:58:44;;;;;;;8.20;6.73;;;8.90;85.80;;;;;;5050823;28;20625;-50
2021/04/12 02:01:45;;;;;;;7.63;6.90;;;9.00;86.10;;;;;;5068106;28;20649;-50
2021/04/12 02:04:31;;;;;;;6.73;6.13;;;9.00;84.70;;;;;;5070718;28;20669;-50
2021/04/12 02:07:11;;;;;;;7.13;6.37;;;8.90;85.30;;;;;;5070673;28;20631;-50
2021/04/12 02:09:48;;;;;;;7.57;6.97;;;8.90;85.80;;;;;;5070841;28;20697;-50
2021/04/12 02:12:22;;;;;;;8.90;8.10;;;8.90;85.50;;;;;;5071073;28;20682;-51
2021/04/12 02:15:01;;;;;;;8.07;7.27;;;8.90;85.20;;;;;;5070653;28;20656;-50
2021/04/12 02:17:39;;;;;;;8.43;7.10;;;8.90;84.70;;;;;;5070643;28;20708;-50
2021/04/12 02:20:17;;;;;;;9.37;7.50;;;8.90;84.60;;;;;;5071036;28;20659;-50
2021/04/12 02:22:55;;;;;;;8.67;7.87;;;8.90;84.90;;;;;;5071299;28;20693;-51
2021/04/12 02:25:31;;;;;;;7.83;7.10;;;8.90;84.10;;;;;;5070510;28;21167;-51
2021/04/12 02:28:06;;;;;;;9.20;8.30;;;8.90;84.60;;;;;;5070754;28;21034;-50
2021/04/12 02:30:36;;;;;;;8.60;7.90;;;8.90;83.90;;;;;;5071284;28;20687;-52
2021/04/12 02:33:07;;;;;;;8.50;7.70;;;8.80;84.40;;;;;;5070499;28;20698;-51
2021/04/12 02:35:44;;;;;;;7.07;6.47;;;8.80;84.50;;;;;;5070710;28;20660;-51
2021/04/12 02:38:21;;;;;;;7.40;6.70;;;8.90;84.50;;;;;;5070927;28;20654;-51
2021/04/12 02:41:03;;;;;;;7.20;6.50;;;8.90;83.40;;;;;;5070131;28;20730;-51
2021/04/12 02:43:50;;;;;;;6.93;6.33;;;8.90;82.60;;;;;;5070481;28;21216;-51
2021/04/12 02:46:26;;;;;;;7.33;6.53;;;8.90;82.40;;;;;;5070705;28;21256;-51
2021/04/12 02:48:58;;;;;;;6.93;5.50;;;9.00;83.10;;;;;;5070442;28;20629;-51
2021/04/12 02:51:37;;;;;;;7.17;6.57;;;9.00;83.10;;;;;;5073029;28;20681;-51
2021/04/12 02:54:09;;;;;;;7.73;7.00;;;8.90;82.90;;;;;;5073663;28;20656;-50
2021/04/12 02:56:51;;;;;;;7.83;7.10;;;8.90;83.00;;;;;;5072925;28;20628;-51
2021/04/12 02:59:40;;;;;;;11.40;6.87;;;8.90;83.00;;;;;;5054823;28;20633;-51
2021/04/12 03:02:40;;;;;;;7.90;7.20;;;8.80;83.40;;;;;;5067449;28;21243;-51
2021/04/12 03:05:18;;;;;;;7.67;6.97;;;8.90;83.00;;;;;;5074036;28;20679;-51
2021/04/12 03:08:19;;;;;;;9.60;7.50;;;8.90;82.60;;;;;;5073660;28;20664;-51
2021/04/12 03:11:07;;;;;;;8.33;7.47;;;8.80;82.20;;;;;;5073784;28;20610;-51
2021/04/12 03:14:09;;;;;;;9.80;8.90;;;8.80;83.20;;;;;;5071920;28;20629;-51
2021/04/12 03:17:02;;;;;;;9.30;8.43;;;8.80;83.30;;;;;;5073657;28;20681;-51
2021/04/12 03:20:16;;;;;;;7.93;7.13;;;8.80;82.50;;;;;;5073002;28;20671;-52
2021/04/12 03:23:20;;;;;;;9.43;8.63;;;8.80;82.30;;;;;;5037635;28;20611;-51
2021/04/12 03:26:03;;;;;;;9.73;8.83;;;8.80;82.60;;;;;;5069886;28;20691;-52
2021/04/12 03:28:51;;;;;;;9.23;8.43;;;8.70;83.00;;;;;;5072963;28;20662;-51
2021/04/12 03:31:35;;;;;;;9.80;9.00;;;8.60;83.40;;;;;;5073225;28;20655;-51
2021/04/12 03:34:11;;;;;;;9.43;8.53;;;8.60;83.90;;;;;;5073293;28;20694;-51
2021/04/12 03:36:57;;;;;;;10.87;9.23;;;8.60;84.30;;;;;;5073490;28;20632;-51
2021/04/12 03:39:26;;;;;;;8.47;7.67;;;8.60;84.10;;;;;;5073228;28;20628;-52
2021/04/12 03:42:02;;;;;;;9.87;8.97;;;8.60;84.80;;;;;;5073320;28;21283;-51
2021/04/12 03:44:38;;;;;;;10.77;9.87;;;8.60;84.80;;;;;;5072973;28;20655;-51
2021/04/12 03:47:20;;;;;;;9.70;8.87;;;8.70;84.90;;;;;;5073321;28;20640;-51
2021/04/12 03:50:03;;;;;;;11.10;9.27;;;8.70;84.90;;;;;;5073546;28;20636;-51
2021/04/12 03:52:49;;;;;;;11.33;10.13;;;8.70;84.60;;;;;;5069961;28;20629;-51
2021/04/12 03:55:42;;;;;;;12.67;11.47;;;8.70;84.90;;;;;;5073017;28;20698;-51
2021/04/12 03:58:33;;;;;;;10.60;9.40;;;8.70;84.70;;;;;;5072972;28;20625;-51
2021/04/12 04:01:33;;;;;;;11.03;9.93;;;8.60;84.70;;;;;;5042315;28;20709;-52
2021/04/12 04:04:32;;;;;;;12.70;11.50;;;8.60;84.70;;;;;;5033975;28;20767;-51
2021/04/12 04:07:23;;;;;;;12.50;11.30;;;8.60;84.80;;;;;;5064490;28;20644;-51
2021/04/12 04:09:55;;;;;;;11.60;10.40;;;8.50;85.30;;;;;;5052860;28;20668;-51
2021/04/12 04:12:35;;;;;;;12.87;11.30;;;8.50;86.10;;;;;;5072099;28;20624;-50
2021/04/12 04:15:30;;;;;;;13.07;11.60;;;8.50;86.20;;;;;;5072678;28;21194;-51
2021/04/12 04:18:08;;;;;;;11.13;9.90;;;8.50;85.70;;;;;;5072051;28;20623;-51
2021/04/12 04:20:42;;;;;;;12.80;11.50;;;8.40;85.40;;;;;;5072425;28;20688;-50
2021/04/12 04:23:27;;;;;;;11.13;10.10;;;8.40;85.30;;;;;;5066561;28;21216;-51
2021/04/12 04:26:20;;;;;;;10.87;9.90;;;8.40;84.90;;;;;;5072000;28;20717;-51
2021/04/12 04:29:00;;;;;;;11.70;10.13;;;8.40;85.30;;;;;;5071840;28;20658;-51
2021/04/12 04:31:56;;;;;;;13.27;12.07;;;8.40;85.10;;;;;;5071961;28;20623;-51
2021/04/12 04:34:32;;;;;;;12.27;10.87;;;8.40;85.20;;;;;;5063250;28;20813;-51
2021/04/12 04:37:22;;;;;;;15.70;12.77;;;8.30;85.10;;;;;;5072167;28;20636;-51
2021/04/12 04:39:56;;;;;;;12.20;10.77;;;8.30;84.60;;;;;;5071919;28;20637;-62
2021/04/12 04:42:55;;;;;;;11.27;10.30;;;8.40;84.50;;;;;;5071816;28;20644;-49
2021/04/12 04:45:41;;;;;;;11.43;10.27;;;8.30;84.00;;;;;;5052211;28;20660;-52
2021/04/12 04:48:26;;;;;;;10.20;9.20;;;8.30;84.00;;;;;;5042135;28;20684;-52
2021/04/12 04:51:25;;;;;;;11.47;10.37;;;8.30;83.40;;;;;;5071390;28;21438;-51
2021/04/12 04:54:14;;;;;;;10.30;9.33;;;8.30;83.50;;;;;;5071384;28;20661;-51
2021/04/12 04:56:58;;;;;;;11.07;9.97;;;8.20;83.40;;;;;;5051459;28;20678;-52
2021/04/12 04:59:39;;;;;;;10.40;9.50;;;8.20;83.60;;;;;;5070859;28;21179;-51
2021/04/12 05:02:36;;;;;;;12.07;10.87;;;8.20;84.10;;;;;;5066536;28;20763;-52
2021/04/12 05:05:13;;;;;;;13.57;11.73;;;8.20;83.80;;;;;;5059950;28;21103;-52
2021/04/12 05:08:01;;;;;;;11.60;10.17;;;8.20;83.90;;;;;;5064907;28;21008;-53
2021/04/12 05:10:42;;;;;;;12.40;10.67;;;8.20;84.60;;;;;;5065438;28;21303;-49
2021/04/12 05:13:14;;;;;;;11.60;10.40;;;8.20;84.20;;;;;;5070274;28;20685;-50
2021/04/12 05:16:00;;;;;;;11.63;10.63;;;8.20;84.10;;;;;;5071220;28;20659;-51
2021/04/12 05:18:55;;;;;;;15.27;11.47;;;8.20;83.90;;;;;;5065810;28;20682;-50
2021/04/12 05:21:45;;;;;;;11.73;10.60;;;8.20;84.00;;;;;;5013807;28;20651;-50
2021/04/12 05:24:42;;;;;;;14.63;11.20;;;8.30;84.70;;;;;;5066948;28;20726;-50
2021/04/12 05:27:57;;;;;;;9.33;8.47;;;8.30;84.20;;;;;;5069504;28;20677;-49
2021/04/12 05:30:48;;;;;;;11.63;10.63;;;8.30;83.40;;;;;;5046250;28;20631;-50
2021/04/12 05:33:21;;;;;;;11.30;10.20;;;8.30;82.90;;;;;;5051350;28;20629;-50
2021/04/12 05:35:54;;;;;;;11.53;10.40;;;8.30;83.10;;;;;;5051433;28;20709;-50
2021/04/12 05:38:49;;;;;;;11.00;9.87;;;8.30;82.50;;;;;;5060662;28;20690;-50
2021/04/12 05:41:32;;;;;;;14.83;11.73;;;8.30;82.00;;;;;;5067250;28;20758;-50
2021/04/12 05:44:12;;;;;;;10.83;9.83;;;8.30;82.30;;;;;;5070693;28;20624;-50
2021/04/12 05:47:28;;;;;;;12.27;11.07;;;8.30;82.40;;;;;;5070538;28;20672;-51
2021/04/12 05:50:14;;;;;;;14.27;10.57;;;8.30;82.40;;;;;;5069050;28;20664;-50
2021/04/12 05:52:53;;;;;;;12.50;10.60;;;8.30;82.50;;;;;;5039332;28;20654;-50
2021/04/12 05:55:27;;;;;;;11.23;10.07;;;8.40;82.70;;;;;;5070414;28;20722;-50
2021/04/12 05:58:15;;;;;;;10.47;8.43;;;8.40;82.20;;;;;;5069920;28;20685;-51
2021/04/12 06:00:50;;;;;;;10.53;9.63;;;8.40;81.70;;;;;;5068840;28;20644;-50
2021/04/12 06:03:50;;;;;;;9.73;8.70;;;8.40;82.10;;;;;;5065198;28;21157;-50
2021/04/12 06:06:25;;;;;;;10.40;9.00;;;8.40;81.60;;;;;;5039171;28;20627;-51
2021/04/12 06:08:58;;;;;;;9.63;7.63;;;8.40;81.20;;;;;;5066244;28;21050;-50
2021/04/12 06:11:53;;;;;;;8.53;7.23;;;8.40;80.80;;;;;;5070216;28;20624;-50
2021/04/12 06:14:45;;;;;;;9.60;7.53;;;8.40;80.70;;;;;;5072436;28;20709;-51
2021/04/12 06:17:44;;;;;;;7.97;7.23;;;8.50;80.90;;;;;;5056690;28;20673;-51
2021/04/12 06:20:54;;;;;;;9.60;6.60;;;8.50;80.70;;;;;;5066232;28;21270;-51
2021/04/12 06:23:57;;;;;;;8.13;7.33;;;8.50;80.30;;;;;;5064163;28;20628;-51
2021/04/12 06:27:10;;;;;;;12.80;6.40;;;8.60;80.00;;;;;;5066855;28;21245;-51
2021/04/12 06:29:46;;;;;;;6.03;5.50;;;8.60;78.60;;;;;;5005680;28;20654;-51
2021/04/12 06:32:54;;;;;;;6.27;4.50;;;8.60;77.90;;;;;;5011276;28;20741;-51
2021/04/12 06:35:49;;;;;;;6.53;6.00;;;8.60;76.90;;;;;;5054565;28;20665;-51
2021/04/12 06:38:45;;;;;;;5.70;5.10;;;8.60;76.10;;;;;;5065603;28;20625;-51
2021/04/12 06:41:32;;;;;;;9.63;5.47;;;8.60;76.10;;;;;;5014569;28;20713;-51
2021/04/12 06:44:25;;;;;;;6.40;5.30;;;8.60;75.70;;;;;;5068142;28;20633;-51
2021/04/12 06:47:28;;;;;;;8.50;4.93;;;8.60;75.60;;;;;;5066469;28;20640;-51
2021/04/12 06:50:37;;;;;;;5.00;4.60;;;8.70;74.50;;;;;;5071564;28;20662;-51
2021/04/12 06:53:43;;;;;;;6.07;5.43;;;8.70;74.60;;;;;;5053981;28;20637;-51
2021/04/12 06:56:57;;;;;;;7.57;6.37;;;8.80;74.10;;;;;;5053789;28;20698;-51
2021/04/12 07:00:06;;;;;;;5.63;5.07;;;8.80;73.80;;;;;;5071319;28;20620;-51
2021/04/12 07:03:10;;;;;;;6.50;4.40;;;8.90;73.30;;;;;;5063640;28;20688;-51
2021/04/12 07:06:27;;;;;;;6.20;5.30;;;8.90;72.10;;;;;;5063402;28;20652;-50
2021/04/12 07:09:34;;;;;;;6.10;5.43;;;8.90;71.80;;;;;;5030911;28;20650;-51
2021/04/12 07:12:18;;;;;;;4.83;4.33;;;9.00;71.90;;;;;;5072998;28;20625;-51
2021/04/12 07:15:24;;;;;;;9.30;5.27;;;9.10;70.40;;;;;;5065229;28;20696;-51
2021/04/12 07:18:42;;;;;;;5.90;4.90;;;9.10;70.00;;;;;;4991567;28;21490;-51
2021/04/12 07:21:42;;;;;;;7.77;5.27;;;9.20;69.80;;;;;;5007120;28;20663;-51
2021/04/12 07:24:46;;;;;;;4.40;4.10;;;9.20;69.60;;;;;;5015400;28;20671;-52
2021/04/12 07:27:49;;;;;;;5.73;3.80;;;9.30;69.30;;;;;;5060997;28;20616;-52
2021/04/12 07:30:42;;;;;;;5.10;4.33;;;9.40;68.30;;;;;;5053073;28;20617;-51
2021/04/12 07:33:27;;;;;;;4.80;3.80;;;9.50;66.10;;;;;;5065738;28;20705;-52
2021/04/12 07:36:26;;;;;;;4.57;3.73;;;9.70;66.20;;;;;;5069872;28;20713;-52
2021/04/12 07:39:27;;;;;;;4.50;3.20;;;10.00;63.80;;;;;;5057952;28;21150;-51
2021/04/12 07:42:21;;;;;;;4.50;3.70;;;10.30;60.60;;;;;;5072944;28;20721;-51
2021/04/12 07:45:30;;;;;;;7.50;3.60;;;10.30;60.00;;;;;;5071871;28;20771;-51
2021/04/12 07:48:34;;;;;;;4.30;3.53;;;10.30;59.60;;;;;;5071801;28;20625;-52
2021/04/12 07:51:24;;;;;;;3.70;3.30;;;10.30;57.70;;;;;;5015119;28;20644;-52
2021/04/12 07:54:47;;;;;;;4.07;3.50;;;10.20;58.20;;;;;;5068620;28;20621;-52
2021/04/12 07:57:49;;;;;;;6.93;3.33;;;10.10;58.20;;;;;;5020988;28;20700;-51
2021/04/12 08:00:42;;;;;;;3.03;2.80;;;10.00;58.30;;;;;;5026021;28;20697;-51
2021/04/12 08:03:38;;;;;;;2.83;2.30;;;10.00;58.50;;;;;;5046642;28;20731;-51
2021/04/12 08:06:42;;;;;;;3.50;3.20;;;10.00;57.50;;;;;;5070238;28;20657;-50
2021/04/12 08:09:41;;;;;;;5.10;3.50;;;10.00;56.90;;;;;;5072125;28;20624;-50
2021/04/12 08:12:40;;;;;;;4.80;3.33;;;10.00;56.90;;;;;;5069841;28;20695;-50
2021/04/12 08:15:32;;;;;;;9.73;5.50;;;10.00;56.80;;;;;;5071883;28;20692;-50
2021/04/12 08:18:13;;;;;;;5.03;3.67;;;10.00;57.10;;;;;;5071072;28;20633;-51
2021/04/12 08:21:23;;;;;;;3.50;3.00;;;10.20;57.80;;;;;;5069851;28;20694;-51
2021/04/12 08:24:13;;;;;;;3.30;3.00;;;10.70;57.80;;;;;;5071799;28;20675;-51
2021/04/12 08:26:58;;;;;;;3.20;2.90;;;11.10;55.80;;;;;;5072007;28;20632;-51
2021/04/12 08:30:02;;;;;;;3.37;2.80;;;11.40;53.30;;;;;;5071653;28;20637;-51
2021/04/12 08:32:59;;;;;;;3.33;2.40;;;11.50;52.30;;;;;;5072145;28;20620;-51
2021/04/12 08:35:51;;;;;;;2.70;2.40;;;11.60;51.60;;;;;;5071326;28;20661;-51
2021/04/12 08:39:03;;;;;;;3.10;2.60;;;11.60;50.30;;;;;;5064381;28;20629;-51
2021/04/12 08:41:40;;;;;;;2.73;2.53;;;11.60;49.60;;;;;;5070694;28;21173;-53
2021/04/12 08:44:37;;;;;;;5.00;2.90;;;11.60;49.70;;;;;;5065872;28;20715;-50
2021/04/12 08:47:48;;;;;;;3.63;3.33;;;11.50;49.30;;;;;;5061885;28;20652;-50
2021/04/12 08:51:03;;;;;;;7.93;3.70;;;11.40;50.50;;;;;;5000555;28;20628;-50
2021/04/12 08:53:50;;;;;;;3.93;3.63;;;11.10;50.80;;;;;;5040895;28;21092;-52
2021/04/12 08:57:02;;;;;;;4.37;3.33;;;11.00;51.40;;;;;;5070327;28;21250;-50
2021/04/12 08:59:54;;;;;;;5.17;3.63;;;10.90;50.90;;;;;;5036594;28;20689;-51
2021/04/12 09:02:51;;;;;;;3.90;3.20;;;11.00;51.50;;;;;;5070693;28;21290;-50
2021/04/12 09:05:49;;;;;;;4.40;3.40;;;11.00;50.90;;;;;;5046592;28;20714;-51
2021/04/12 09:09:01;;;;;;;4.30;3.10;;;10.90;51.00;;;;;;5070390;28;20621;-51
2021/04/12 09:11:56;;;;;;;4.93;3.33;;;10.80;50.80;;;;;;5060528;28;20649;-51
2021/04/12 09:15:00;;;;;;;3.67;3.37;;;10.80;50.60;;;;;;5063004;28;21170;-51
2021/04/12 09:17:48;;;;;;;4.33;3.97;;;10.80;50.70;;;;;;5057696;28;21018;-50
2021/04/12 09:20:36;;;;;;;4.00;3.10;;;10.90;50.40;;;;;;5071176;28;20629;-51
2021/04/12 09:23:37;;;;;;;3.90;3.40;;;11.00;50.80;;;;;;5071097;28;21232;-51
2021/04/12 09:26:30;;;;;;;5.33;3.70;;;11.20;50.40;;;;;;5068701;28;20701;-50
2021/04/12 09:29:07;;;;;;;6.73;4.27;;;11.30;49.50;;;;;;5070894;28;20690;-52
2021/04/12 09:32:19;;;;;;;3.70;3.40;;;11.30;49.90;;;;;;5071392;28;21142;-51
2021/04/12 09:35:05;;;;;;;6.23;4.93;;;11.30;50.10;;;;;;5051393;28;21029;-52
2021/04/12 09:38:22;;;;;;;8.37;4.40;;;11.30;49.70;;;;;;5068409;28;20683;-52
2021/04/12 09:41:25;;;;;;;6.53;4.80;;;11.30;50.10;;;;;;5072611;28;21387;-51
2021/04/12 09:44:12;;;;;;;5.13;4.57;;;11.10;50.20;;;;;;5071889;28;20633;-50
2021/04/12 09:47:31;;;;;;;14.20;6.20;;;11.00;49.90;;;;;;5072059;28;20641;-52
2021/04/12 09:50:20;;;;;;;5.10;4.67;;;10.90;49.40;;;;;;5030059;28;20657;-51
2021/04/12 09:52:51;;;;;;;6.50;4.93;;;11.00;49.30;;;;;;5067900;28;20659;-52
2021/04/12 09:55:51;;;;;;;5.03;4.50;;;11.30;49.80;;;;;;5066275;28;20692;-51
2021/04/12 09:58:55;;;;;;;7.13;4.50;;;11.60;47.90;;;;;;5072856;28;21090;-51
2021/04/12 10:01:27;;;;;;;8.57;5.20;;;11.90;47.70;;;;;;5068505;28;20629;-52
2021/04/12 10:04:22;;;;;;;6.57;5.10;;;12.00;46.90;;;;;;5070308;28;21202;-52
2021/04/12 10:07:08;;;;;;;6.40;5.20;;;12.00;47.30;;;;;;5067972;28;20625;-52
2021/04/12 10:09:45;;;;;;;5.07;4.57;;;12.00;47.00;;;;;;5070337;28;20620;-52
2021/04/12 10:12:47;;;;;;;7.47;5.40;;;11.80;46.40;;;;;;5067403;28;20621;-53
2021/04/12 10:15:21;;;;;;;6.63;5.57;;;11.60;45.80;;;;;;5033144;28;20673;-52
2021/04/12 10:17:49;;;;;;;7.30;6.33;;;11.50;46.70;;;;;;5069418;28;20656;-52
2021/04/12 10:20:21;;;;;;;7.10;5.57;;;11.50;46.10;;;;;;5070538;28;20679;-52
2021/04/12 10:22:53;;;;;;;6.20;5.70;;;11.40;45.50;;;;;;5063554;28;20685;-53
2021/04/12 10:25:27;;;;;;;5.30;4.80;;;11.50;46.10;;;;;;5050322;28;20657;-51
2021/04/12 10:27:56;;;;;;;4.20;3.80;;;12.00;44.90;;;;;;5049712;28;20676;-51
2021/04/12 10:30:25;;;;;;;3.20;3.00;;;12.80;42.70;;;;;;5050004;28;21197;-51
2021/04/12 10:32:53;;;;;;;3.30;3.10;;;13.70;40.80;;;;;;5050492;28;20650;-52
2021/04/12 10:35:22;;;;;;;2.47;2.27;;;14.70;38.70;;;;;;5050348;28;20689;-53
2021/04/12 10:37:55;;;;;;;2.97;2.77;;;15.80;34.80;;;;;;5049730;28;20633;-51
2021/04/12 10:40:23;;;;;;;4.30;3.27;;;15.90;33.80;;;;;;5050348;28;20625;-51
2021/04/12 10:42:55;;;;;;;4.83;3.47;;;15.50;32.80;;;;;;5050372;28;21233;-52
2021/04/12 10:45:24;;;;;;;4.80;4.40;;;14.90;32.80;;;;;;5059700;28;20657;-50
2021/04/12 10:48:03;;;;;;;3.67;3.37;;;14.20;35.40;;;;;;5070577;28;21267;-51
2021/04/12 10:50:52;;;;;;;3.07;2.63;;;14.30;37.40;;;;;;5069616;28;20625;-52
2021/04/12 10:53:40;;;;;;;4.03;3.57;;;14.10;36.60;;;;;;5048041;28;20618;-51
2021/04/12 10:56:09;;;;;;;3.80;3.50;;;13.90;36.80;;;;;;5049555;28;20654;-51
2021/04/12 10:59:03;;;;;;;4.23;3.83;;;14.20;36.90;;;;;;5049855;28;20626;-51
2021/04/12 11:01:37;;;;;;;2.73;2.27;;;14.80;37.00;;;;;;5067376;28;20621;-50
2021/04/12 11:04:11;;;;;;;3.17;2.60;;;15.30;34.70;;;;;;5063868;28;21272;-51
2021/04/12 11:06:54;;;;;;;3.30;3.10;;;15.20;34.10;;;;;;5069038;28;20624;-51
2021/04/12 11:09:32;;;;;;;5.60;3.00;;;15.30;33.50;;;;;;5069150;28;20625;-51
2021/04/12 11:12:03;;;;;;;3.73;2.33;;;15.80;33.20;;;;;;5071837;28;20613;-51
2021/04/12 11:14:31;;;;;;;2.30;2.10;;;16.60;30.60;;;;;;5073140;28;21019;-51
2021/04/12 11:17:01;;;;;;;5.40;3.80;;;16.70;29.80;;;;;;5073580;28;20628;-52
2021/04/12 11:19:31;;;;;;;1.40;1.30;;;16.60;29.60;;;;;;5072225;28;20679;-52
2021/04/12 11:22:16;;;;;;;3.03;1.60;;;16.20;28.80;;;;;;5073035;28;20691;-52
2021/04/12 11:24:50;;;;;;;2.10;1.90;;;15.20;28.80;;;;;;5053191;28;20661;-53
2021/04/12 11:27:59;;;;;;;4.13;2.43;;;14.70;30.00;;;;;;5063762;28;20656;-51
2021/04/12 11:30:29;;;;;;;1.80;1.50;;;14.40;30.80;;;;;;5067316;28;21169;-54
2021/04/12 11:33:15;;;;;;;2.90;1.93;;;14.20;30.00;;;;;;5073744;28;20621;-51
2021/04/12 11:35:50;;;;;;;2.20;2.10;;;14.00;29.60;;;;;;5073190;28;20672;-53
2021/04/12 11:38:17;;;;;;;2.70;1.93;;;14.10;30.80;;;;;;5072704;28;20962;-50
2021/04/12 11:40:50;;;;;;;2.73;2.13;;;13.90;29.70;;;;;;5072725;28;21315;-50
2021/04/12 11:43:18;;;;;;;2.50;2.40;;;13.80;30.90;;;;;;5073056;28;21292;-51
2021/04/12 11:45:51;;;;;;;2.47;2.27;;;13.80;31.60;;;;;;5071999;28;20737;-51
2021/04/12 11:48:19;;;;;;;2.73;2.53;;;13.70;31.80;;;;;;5072438;28;20636;-51
2021/04/12 11:50:46;;;;;;;3.30;2.43;;;13.60;32.50;;;;;;5067819;28;20686;-51
2021/04/12 11:53:18;;;;;;;2.67;2.40;;;13.40;32.10;;;;;;5072433;28;20633;-52
2021/04/12 11:55:48;;;;;;;3.23;2.50;;;13.60;32.30;;;;;;5073825;28;20660;-51
2021/04/12 11:58:16;;;;;;;3.13;2.63;;;14.10;31.60;;;;;;5067602;28;20652;-52
2021/04/12 12:00:57;;;;;;;2.13;1.93;;;14.40;31.30;;;;;;5072004;28;20656;-51
2021/04/12 12:03:39;;;;;;;2.90;2.30;;;14.50;31.40;;;;;;5073279;28;20649;-51
2021/04/12 12:06:12;;;;;;;4.80;2.60;;;14.40;31.30;;;;;;5072792;28;20678;-52
2021/04/12 12:08:48;;;;;;;2.90;2.70;;;14.20;30.90;;;;;;5067466;28;20633;-51
2021/04/12 12:11:18;;;;;;;4.97;4.50;;;14.00;31.10;;;;;;5072651;28;20625;-52
2021/04/12 12:13:51;;;;;;;2.67;2.47;;;13.60;32.30;;;;;;5067396;28;21192;-51
2021/04/12 12:16:25;;;;;;;3.67;2.77;;;13.50;32.80;;;;;;5071262;28;20637;-51
2021/04/12 12:18:55;;;;;;;3.07;2.87;;;13.40;32.80;;;;;;5052733;28;21046;-51
2021/04/12 12:21:23;;;;;;;4.47;3.30;;;13.40;33.00;;;;;;5067636;28;20702;-51
2021/04/12 12:23:58;;;;;;;2.63;2.43;;;13.70;33.40;;;;;;5071323;28;20701;-51
2021/04/12 12:26:32;;;;;;;3.50;2.20;;;13.80;32.70;;;;;;5067742;28;21153;-53
2021/04/12 12:29:11;;;;;;;2.80;2.50;;;13.80;32.20;;;;;;5071355;28;20624;-51
2021/04/12 12:31:45;;;;;;;2.73;2.33;;;14.20;32.40;;;;;;5072115;28;21204;-51
2021/04/12 12:34:30;;;;;;;2.40;2.20;;;14.80;32.00;;;;;;5072250;28;20664;-52
2021/04/12 12:36:59;;;;;;;3.37;1.87;;;15.20;30.90;;;;;;5070529;28;20710;-51
2021/04/12 12:39:30;;;;;;;3.50;2.10;;;15.10;30.30;;;;;;5070939;28;20682;-52
2021/04/12 12:42:00;;;;;;;3.90;1.90;;;14.70;30.90;;;;;;5071796;28;20621;-52
2021/04/12 12:44:26;;;;;;;4.60;2.30;;;14.40;31.70;;;;;;5070405;28;20661;-51
2021/04/12 12:46:53;;;;;;;3.70;2.57;;;14.20;31.00;;;;;;5070719;28;20679;-52
2021/04/12 12:49:22;;;;;;;3.40;2.77;;;14.00;31.60;;;;;;5070922;28;20967;-52
2021/04/12 12:51:51;;;;;;;5.30;2.80;;;14.20;32.10;;;;;;5071667;28;20616;-52
2021/04/12 12:54:22;;;;;;;2.53;2.33;;;14.20;31.90;;;;;;5071593;28;20668;-52
2021/04/12 12:56:49;;;;;;;3.20;2.80;;;14.10;32.40;;;;;;5071458;28;20668;-51
2021/04/12 12:59:25;;;;;;;2.30;2.10;;;14.10;32.40;;;;;;5071695;28;20685;-52
2021/04/12 13:01:53;;;;;;;3.23;2.77;;;14.20;32.30;;;;;;5066888;28;20613;-50
2021/04/12 13:04:20;;;;;;;2.87;2.10;;;14.40;31.50;;;;;;5051525;28;20702;-51
2021/04/12 13:06:49;;;;;;;3.07;2.87;;;14.40;31.90;;;;;;5057120;28;20995;-51
2021/04/12 13:09:24;;;;;;;3.23;2.93;;;14.40;32.60;;;;;;5061538;28;21212;-51
2021/04/12 13:11:52;;;;;;;4.07;1.80;;;14.40;32.20;;;;;;5061762;28;20635;-51
2021/04/12 13:14:29;;;;;;;1.87;1.77;;;14.20;31.20;;;;;;5070885;28;20690;-52
2021/04/12 13:16:56;;;;;;;1.97;1.40;;;14.00;31.40;;;;;;5071173;28;20701;-51
2021/04/12 13:19:23;;;;;;;3.10;2.07;;;13.60;32.20;;;;;;5070741;28;20659;-51
2021/04/12 13:21:53;;;;;;;3.00;2.27;;;13.50;32.50;;;;;;5071489;28;20691;-51
2021/04/12 13:24:24;;;;;;;2.50;2.30;;;13.30;33.00;;;;;;5070858;28;20700;-51
2021/04/12 13:26:54;;;;;;;2.67;2.30;;;13.00;32.80;;;;;;5069724;28;20656;-51
2021/04/12 13:29:22;;;;;;;1.13;1.07;;;12.80;34.10;;;;;;5070933;28;20692;-53
2021/04/12 13:31:51;;;;;;;6.93;1.57;;;12.40;32.30;;;;;;5071099;28;20629;-51
2021/04/12 13:34:20;;;;;;;2.07;1.87;;;12.20;33.50;;;;;;5069452;28;20653;-51
2021/04/12 13:36:52;;;;;;;3.00;2.13;;;12.10;35.30;;;;;;5070806;28;21197;-51
2021/04/12 13:39:28;;;;;;;2.53;2.33;;;12.00;37.10;;;;;;5070727;28;20677;-51
2021/04/12 13:41:55;;;;;;;3.13;2.83;;;11.90;39.40;;;;;;5068036;28;20706;-52
2021/04/12 13:44:23;;;;;;;4.40;3.00;;;11.90;41.70;;;;;;5070486;28;20704;-51
2021/04/12 13:46:56;;;;;;;2.90;2.47;;;11.90;43.20;;;;;;5070326;28;20633;-50
2021/04/12 13:49:25;;;;;;;6.00;4.27;;;11.70;42.90;;;;;;5070270;28;20725;-51
2021/04/12 13:51:52;;;;;;;2.80;2.60;;;11.70;44.20;;;;;;5070616;28;20977;-51
2021/04/12 13:54:21;;;;;;;2.70;2.50;;;11.90;46.20;;;;;;5070155;28;20726;-52
2021/04/12 13:56:50;;;;;;;2.40;2.20;;;12.70;48.50;;;;;;5070739;28;20736;-51
2021/04/12 13:59:21;;;;;;;3.13;2.80;;;13.80;45.70;;;;;;5070926;28;20617;-52
2021/04/12 14:01:51;;;;;;;3.13;2.83;;;15.00;44.40;;;;;;5071082;28;20647;-51
2021/04/12 14:04:20;;;;;;;4.43;3.73;;;15.80;40.10;;;;;;5070527;28;20785;-52
2021/04/12 14:06:53;;;;;;;3.50;3.23;;;15.90;39.50;;;;;;5070631;28;20621;-52
2021/04/12 14:09:23;;;;;;;3.73;2.67;;;15.70;38.80;;;;;;5070644;28;20621;-52
2021/04/12 14:11:53;;;;;;;3.70;2.50;;;15.40;38.90;;;;;;5056320;28;20680;-53
2021/04/12 14:14:22;;;;;;;2.70;2.50;;;15.10;39.00;;;;;;5051019;28;20692;-52
2021/04/12 14:16:54;;;;;;;3.10;2.70;;;14.80;38.00;;;;;;5050723;28;20629;-52